Temp: 17.6°C   Baro: 1015.5mb
  Wind: 4.0mph   Dir: SW (231°)
  Rain: 0.6mm (0.0mm/hr)
  Solar: 230W/m2  Hum: 63%
 
Bath Spa Weather Station Historical Data
Daily Summary for August 4, 2020 Units:  Metric    English   Both
Daily Weekly Monthly Yearly Custom
  High: Low: Average:
Temperature: 17.6 °C 11.4 °C 14.5 °C
Dew Point: 13.7 °C 9.8 °C 12.1 °C
Humidity: 92% 66.6% 83%
Wind Speed: 17.4km/h 0km/h 5.6km/h
Wind Gust: 29km/h - -
Wind- - WNW
Pressure: 1021.9 hPa 1019.5 hPa -
Precipitation: 0.25 mm    
Historical Graphs
 
 
Tabular Data for August 4, 2020
Time Temperature Dew Point Pressure Wind Wind Speed Wind Gust Humidity Rainfall Rate (Hourly) solar
00:04 14.1 °C 12.5 °C 1019.5 hPa West 1.3 km/h 4.8 km/h 87% 0 mm 0 W/m2
00:09 13.9 °C 12.3 °C 1019.5 hPa West 1.4 km/h 4.8 km/h 87% 0 mm 0 W/m2
00:14 13.9 °C 12.3 °C 1019.5 hPa West 1.9 km/h 4.8 km/h 87.4% 0 mm 0 W/m2
00:19 13.8 °C 12.3 °C 1019.5 hPa West 1.1 km/h 4.8 km/h 88% 0 mm 0 W/m2
00:24 13.7 °C 12.2 °C 1019.5 hPa West 1.6 km/h 4.8 km/h 88% 0 mm 0 W/m2
00:29 13.7 °C 12.2 °C 1019.5 hPa West 3.5 km/h 6.4 km/h 88% 0 mm 0 W/m2
00:34 13.7 °C 12.2 °C 1019.5 hPa West 3.5 km/h 6.4 km/h 88% 0 mm 0 W/m2
00:39 13.7 °C 12.2 °C 1019.5 hPa West 2.6 km/h 6.4 km/h 88% 0 mm 0 W/m2
00:44 13.7 °C 12.2 °C 1019.5 hPa West 2.7 km/h 6.4 km/h 88% 0 mm 0 W/m2
00:49 13.7 °C 12.3 °C 1019.5 hPa NNW 2.7 km/h 6.4 km/h 88.4% 0 mm 0 W/m2
00:54 13.7 °C 12.4 °C 1019.5 hPa NNW 2.1 km/h 4.8 km/h 89% 0 mm 0 W/m2
00:59 13.7 °C 12.4 °C 1019.5 hPa NNW 2.9 km/h 4.8 km/h 89% 0 mm 0 W/m2
01:03 13.7 °C 12.4 °C 1019.5 hPa NNW 2.7 km/h 4.8 km/h 89% 0 mm 0 W/m2
01:09 13.7 °C 12.4 °C 1019.5 hPa NNW 2.1 km/h 4.8 km/h 89% 0 mm 0 W/m2
01:14 13.6 °C 12.3 °C 1019.5 hPa NNW 0.3 km/h 3.2 km/h 89% 0 mm 0 W/m2
01:19 13.6 °C 12.3 °C 1019.5 hPa Calm     89% 0 mm 0 W/m2
01:24 13.6 °C 12.3 °C 1019.5 hPa NNW 1 km/h 3.2 km/h 89% 0 mm 0 W/m2
01:29 13.6 °C 12.3 °C 1019.5 hPa NNW 1.4 km/h 3.2 km/h 89% 0 mm 0 W/m2
01:34 13.6 °C 12.3 °C 1019.5 hPa NNW 1.4 km/h 4.8 km/h 89% 0 mm 0 W/m2
01:39 13.6 °C 12.3 °C 1019.5 hPa NNW 1.3 km/h 4.8 km/h 89% 0 mm 0 W/m2
01:44 13.6 °C 12.3 °C 1019.5 hPa NNW 0.3 km/h 3.2 km/h 89% 0 mm 0 W/m2
01:49 13.6 °C 12.4 °C 1019.5 hPa NNW 2.4 km/h 4.8 km/h 89.5% 0 mm 0 W/m2
01:54 13.6 °C 12.5 °C 1019.5 hPa NNW 1.4 km/h 4.8 km/h 90% 0 mm 0 W/m2
01:59 13.6 °C 12.5 °C 1019.5 hPa NNW 3.2 km/h 6.4 km/h 90% 0 mm 0 W/m2
02:04 13.6 °C 12.5 °C 1019.9 hPa NNW 3.2 km/h 4.8 km/h 90% 0 mm 0 W/m2
02:09 13.6 °C 12.4 °C 1019.9 hPa NNW 1.9 km/h 4.8 km/h 89.4% 0 mm 0 W/m2
02:14 13.6 °C 12.4 °C 1019.9 hPa NNW 1.9 km/h 4.8 km/h 89.6% 0 mm 0 W/m2
02:19 13.6 °C 12.5 °C 1019.9 hPa NNW 3.2 km/h 4.8 km/h 90% 0 mm 0 W/m2
02:24 13.6 °C 12.5 °C 1019.5 hPa NNW 3.2 km/h 4.8 km/h 90% 0 mm 0 W/m2
02:29 13.5 °C 12.4 °C 1019.5 hPa NNW 4 km/h 6.4 km/h 90% 0 mm 0 W/m2
02:34 13.4 °C 12.3 °C 1019.5 hPa NNW 1 km/h 4.8 km/h 90% 0 mm 0 W/m2
02:39 13.3 °C 12.2 °C 1019.5 hPa Calm   1.6 km/h 90% 0 mm 0 W/m2
02:44 13.3 °C 12.2 °C 1019.5 hPa Calm     90% 0 mm 0 W/m2
02:49 13.2 °C 12.2 °C 1019.5 hPa Calm     90% 0 mm 0 W/m2
02:54 13.2 °C 12.1 °C 1019.5 hPa Calm   1.6 km/h 90% 0 mm 0 W/m2
02:59 13.1 °C 12 °C 1019.9 hPa NNW 3.1 km/h 4.8 km/h 90% 0 mm 0 W/m2
03:04 13 °C 11.9 °C 1019.5 hPa NNW 2.6 km/h 4.8 km/h 90% 0 mm 0 W/m2
03:09 13 °C 11.9 °C 1019.5 hPa NNW 4 km/h 8 km/h 90% 0 mm 0 W/m2
03:14 13 °C 11.9 °C 1019.5 hPa WNW 3.4 km/h 8 km/h 90.2% 0 mm 0 W/m2
03:19 12.9 °C 12.1 °C 1019.9 hPa WNW 2.6 km/h 4.8 km/h 91% 0 mm 0 W/m2
03:24 12.9 °C 12 °C 1019.9 hPa WNW 3.9 km/h 6.4 km/h 91% 0 mm 0 W/m2
03:29 12.9 °C 12 °C 1019.9 hPa WNW 1.9 km/h 6.4 km/h 91% 0 mm 0 W/m2
03:34 12.8 °C 11.8 °C 1019.9 hPa WNW 1.6 km/h 3.2 km/h 90.2% 0 mm 0 W/m2
03:39 12.8 °C 11.9 °C 1019.9 hPa WNW 2.7 km/h 4.8 km/h 91% 0 mm 0 W/m2
03:44 12.7 °C 11.8 °C 1019.9 hPa Calm   3.2 km/h 91% 0 mm 0 W/m2
03:49 12.7 °C 11.8 °C 1019.9 hPa Calm     91% 0 mm 0 W/m2
03:54 12.6 °C 11.7 °C 1019.9 hPa Calm     91% 0 mm 0 W/m2
03:59 12.6 °C 11.7 °C 1019.9 hPa Calm     91% 0 mm 0 W/m2
04:04 12.5 °C 11.6 °C 1019.9 hPa Calm     91% 0 mm 0 W/m2
04:09 12.4 °C 11.6 °C 1019.9 hPa Calm     91% 0 mm 0 W/m2
04:14 12.4 °C 11.6 °C 1019.9 hPa WNW 3.9 km/h 4.8 km/h 91% 0 mm 0 W/m2
04:19 12.6 °C 11.7 °C 1019.9 hPa WNW 1.4 km/h 4.8 km/h 91% 0 mm 0 W/m2
04:24 12.6 °C 11.7 °C 1019.9 hPa Calm   1.6 km/h 91% 0 mm 0 W/m2
04:29 12.6 °C 11.7 °C 1020.2 hPa Calm     91% 0 mm 0 W/m2
04:34 12.6 °C 11.7 °C 1020.2 hPa Calm     91% 0 mm 0 W/m2
04:39 12.6 °C 11.7 °C 1020.2 hPa WNW 0.3 km/h 1.6 km/h 91.2% 0 mm 0 W/m2
04:44 12.6 °C 11.8 °C 1020.2 hPa WNW 0.8 km/h 3.2 km/h 91.5% 0 mm 0 W/m2
04:49 12.7 °C 11.9 °C 1020.2 hPa WNW 0.6 km/h 4.8 km/h 92% 0 mm 0 W/m2
04:54 12.7 °C 11.9 °C 1020.2 hPa WNW 0.6 km/h 3.2 km/h 92% 0 mm 0 W/m2
04:59 12.8 °C 12 °C 1020.2 hPa WNW 1.6 km/h 4.8 km/h 92% 0 mm 0 W/m2
05:04 12.9 °C 12.1 °C 1020.2 hPa WNW 2.7 km/h 6.4 km/h 92% 0 mm 0 W/m2
05:09 12.9 °C 12.1 °C 1019.9 hPa WNW 0.8 km/h 3.2 km/h 92% 0 mm 0 W/m2
05:14 12.9 °C 12.1 °C 1019.9 hPa WNW 1.3 km/h 3.2 km/h 92% 0 mm 0 W/m2
05:19 12.9 °C 12.1 °C 1020.2 hPa Calm   1.6 km/h 92% 0 mm 0 W/m2
05:24 12.9 °C 12.2 °C 1020.2 hPa WNW 0.8 km/h 3.2 km/h 92% 0 mm 0 W/m2
05:29 13 °C 12.2 °C 1020.2 hPa WNW 1.3 km/h 4.8 km/h 92% 0 mm 0 W/m2
05:34 13 °C 12.2 °C 1020.2 hPa WNW 1.3 km/h 3.2 km/h 92% 0 mm 0 W/m2
05:39 12.9 °C 12.2 °C 1020.2 hPa WNW 2.7 km/h 6.4 km/h 92% 0 mm 0 W/m2
05:44 12.9 °C 12.1 °C 1020.2 hPa WNW 3.5 km/h 6.4 km/h 92% 0 mm 0 W/m2
05:49 12.9 °C 12.1 °C 1020.5 hPa WNW 2.4 km/h 6.4 km/h 92% 0 mm 0 W/m2
05:54 12.9 °C 12.1 °C 1020.5 hPa WNW 2.1 km/h 6.4 km/h 92% 0 mm 0 W/m2
05:59 12.9 °C 12.1 °C 1020.5 hPa WNW 0.3 km/h 3.2 km/h 92% 0 mm 0 W/m2
06:03 12.9 °C 12.1 °C 1020.5 hPa WNW 0.8 km/h 3.2 km/h 92% 0 mm 0 W/m2
06:09 12.9 °C 12.1 °C 1020.5 hPa WNW 1 km/h 3.2 km/h 92% 0 mm 0 W/m2
06:14 12.9 °C 12.1 °C 1020.5 hPa WNW 0.6 km/h 3.2 km/h 92% 0 mm 0 W/m2
06:19 12.9 °C 12.1 °C 1020.5 hPa WNW 0.6 km/h 4.8 km/h 92% 0 mm 0 W/m2
06:24 12.9 °C 12.1 °C 1020.5 hPa WNW 2.6 km/h 4.8 km/h 92% 0 mm 0 W/m2
06:29 12.9 °C 12.1 °C 1020.5 hPa WNW 1 km/h 6.4 km/h 92% 0 mm 0 W/m2
06:34 12.9 °C 12.1 °C 1020.5 hPa WSW 3.4 km/h 8 km/h 92% 0 mm 0 W/m2
06:39 12.9 °C 12.1 °C 1020.5 hPa WSW 2.1 km/h 6.4 km/h 92% 0 mm 0 W/m2
06:43 12.9 °C 12.1 °C 1020.5 hPa West 2.4 km/h 4.8 km/h 92% 0 mm 7 W/m2
06:49 12.9 °C 12.1 °C 1020.5 hPa West 3.4 km/h 6.4 km/h 92% 0 mm 9 W/m2
06:54 12.9 °C 12.1 °C 1020.5 hPa WNW 3.1 km/h 6.4 km/h 92% 0 mm 11 W/m2
06:59 12.9 °C 12.1 °C 1020.5 hPa WNW 2.9 km/h 6.4 km/h 92% 0 mm 11 W/m2
07:04 12.9 °C 12.2 °C 1020.9 hPa WNW 2.7 km/h 6.4 km/h 92% 0 mm 7 W/m2
07:09 13 °C 12.2 °C 1020.9 hPa West 3.5 km/h 9.7 km/h 92% 0 mm 7 W/m2
07:14 13 °C 12.2 °C 1020.9 hPa WSW 4.5 km/h 9.7 km/h 92% 0 mm 9 W/m2
07:19 13.1 °C 12.3 °C 1020.9 hPa WSW 1.9 km/h 6.4 km/h 92% 0 mm 12 W/m2
07:23 13.1 °C 12.3 °C 1020.9 hPa West 3.5 km/h 8 km/h 92% 0 mm 14 W/m2
07:29 13.1 °C 12.3 °C 1020.9 hPa WSW 3.2 km/h 4.8 km/h 92% 0 mm 14 W/m2
07:34 13.2 °C 12.4 °C 1020.9 hPa West 4.7 km/h 9.7 km/h 92% 0 mm 16 W/m2
07:39 13.2 °C 12.4 °C 1021.2 hPa West 3.1 km/h 9.7 km/h 92% 0 mm 18 W/m2
07:44 13.2 °C 12.4 °C 1021.2 hPa WSW 4.7 km/h 9.7 km/h 92% 0 mm 19 W/m2
07:49 13.3 °C 12.4 °C 1021.2 hPa WSW 3.1 km/h 8 km/h 92% 0 mm 26 W/m2
07:54 13.3 °C 12.5 °C 1021.2 hPa WSW 3.9 km/h 9.7 km/h 92% 0 mm 23 W/m2
07:59 13.3 °C 12.5 °C 1021.2 hPa WSW 3.9 km/h 11.3 km/h 92% 0 mm 44 W/m2
08:04 13.3 °C 12.5 °C 1021.2 hPa WSW 3.9 km/h 9.7 km/h 91.8% 0 mm 44 W/m2
08:09 13.4 °C 12.5 °C 1021.2 hPa West 5.3 km/h 12.9 km/h 91% 0 mm 35 W/m2
08:14 13.4 °C 12.5 °C 1021.2 hPa WSW 6.6 km/h 12.9 km/h 91.2% 0 mm 28 W/m2
08:19 13.4 °C 12.5 °C 1021.2 hPa WSW 4.7 km/h 9.7 km/h 91% 0 mm 30 W/m2
08:24 13.5 °C 12.6 °C 1021.2 hPa West 5.1 km/h 11.3 km/h 91% 0 mm 33 W/m2
08:29 13.5 °C 12.6 °C 1021.2 hPa West 2.7 km/h 8 km/h 91% 0 mm 47 W/m2
08:34 13.6 °C 12.7 °C 1021.2 hPa West 1.9 km/h 8 km/h 91% 0 mm 84 W/m2
08:39 13.6 °C 12.7 °C 1020.9 hPa Calm   3.2 km/h 91% 0 mm 84 W/m2
08:44 13.6 °C 12.7 °C 1020.9 hPa West 0.3 km/h 4.8 km/h 91% 0 mm 77 W/m2
08:49 13.7 °C 12.8 °C 1020.9 hPa West 0.3 km/h 3.2 km/h 91% 0 mm 79 W/m2
08:54 13.7 °C 12.8 °C 1020.9 hPa West 0.8 km/h 3.2 km/h 91% 0 mm 107 W/m2
08:59 13.7 °C 12.8 °C 1020.9 hPa West 1.3 km/h 3.2 km/h 91% 0 mm 371 W/m2
09:04 14 °C 13 °C 1021.2 hPa West 1.6 km/h 6.4 km/h 91% 0 mm 390 W/m2
09:09 14.3 °C 13.2 °C 1021.2 hPa West 0.6 km/h 6.4 km/h 90% 0 mm 452 W/m2
09:14 14.6 °C 13.4 °C 1021.2 hPa West 1.8 km/h 4.8 km/h 89.8% 0 mm 292 W/m2
09:18 14.8 °C 13.6 °C 1021.2 hPa West 4 km/h 6.4 km/h 89% 0 mm 459 W/m2
09:24 15.2 °C 13.6 °C 1021.6 hPa WSW 9.2 km/h 16.1 km/h 87.8% 0 mm 396 W/m2
09:29 15 °C 13.3 °C 1021.6 hPa WSW 11.3 km/h 17.7 km/h 86.4% 0 mm 295 W/m2
09:34 15.1 °C 13.3 °C 1021.6 hPa WSW 6.8 km/h 12.9 km/h 86% 0 mm 350 W/m2
09:39 15.2 °C 13.2 °C 1021.6 hPa WSW 4.2 km/h 11.3 km/h 85% 0 mm 236 W/m2
09:44 15.3 °C 13.3 °C 1021.6 hPa WSW 5.1 km/h 11.3 km/h 85% 0 mm 355 W/m2
09:49 15.4 °C 13.3 °C 1021.6 hPa WSW 5.8 km/h 12.9 km/h 84.4% 0 mm 360 W/m2
09:54 15.4 °C 13.3 °C 1021.6 hPa West 7.4 km/h 16.1 km/h 84% 0 mm 285 W/m2
09:59 15.7 °C 13.4 °C 1021.6 hPa WSW 6.1 km/h 14.5 km/h 83.8% 0 mm 366 W/m2
10:04 15.7 °C 13.3 °C 1021.6 hPa West 10.5 km/h 16.1 km/h 83% 0 mm 327 W/m2
10:09 15.7 °C 13.1 °C 1021.6 hPa West 10.8 km/h 17.7 km/h 82.3% 0 mm 304 W/m2
10:14 15.6 °C 13 °C 1021.6 hPa WSW 9.7 km/h 16.1 km/h 82% 0 mm 202 W/m2
10:19 15.6 °C 13 °C 1021.6 hPa West 10.3 km/h 14.5 km/h 82% 0 mm 169 W/m2
10:24 15.6 °C 12.9 °C 1021.9 hPa WSW 9 km/h 19.3 km/h 82% 0 mm 128 W/m2
10:29 15.4 °C 12.8 °C 1021.9 hPa WSW 7.7 km/h 14.5 km/h 82% 0 mm 121 W/m2
10:34 15.4 °C 12.9 °C 1021.9 hPa WSW 9.2 km/h 16.1 km/h 82.8% 0 mm 236 W/m2
10:39 15.3 °C 12.9 °C 1021.9 hPa WSW 8.5 km/h 19.3 km/h 83% 0 mm 327 W/m2
10:44 15.3 °C 12.9 °C 1021.6 hPa WSW 7.6 km/h 19.3 km/h 83% 0 mm 353 W/m2
10:49 15.5 °C 13.1 °C 1021.9 hPa WSW 11.6 km/h 20.9 km/h 82.8% 0 mm 287 W/m2
10:54 15.6 °C 13 °C 1021.9 hPa WSW 10.6 km/h 20.9 km/h 82% 0 mm 243 W/m2
10:59 15.3 °C 12.7 °C 1021.9 hPa West 14.2 km/h 25.7 km/h 81.8% 0 mm 176 W/m2
11:04 14.9 °C 12.4 °C 1021.9 hPa West 10.9 km/h 17.7 km/h 82.6% 0 mm 214 W/m2
11:09 14.9 °C 12.6 °C 1021.9 hPa West 8.4 km/h 12.9 km/h 83.4% 0 mm 309 W/m2
11:13 15.1 °C 12.8 °C 1021.9 hPa WSW 8.9 km/h 14.5 km/h 84% 0 mm 381 W/m2
11:19 15.3 °C 13.1 °C 1021.9 hPa WSW 5.3 km/h 11.3 km/h 84% 0 mm 385 W/m2
11:24 15.6 °C 13.2 °C 1021.9 hPa West 3.9 km/h 9.7 km/h 83% 0 mm 431 W/m2
11:29 16.1 °C 13.5 °C 1021.6 hPa WSW 7.4 km/h 16.1 km/h 82.4% 0 mm 415 W/m2
11:34 16.2 °C 13.2 °C 1021.6 hPa West 10 km/h 17.7 km/h 79.8% 0 mm 459 W/m2
11:39 16.3 °C 12.8 °C 1021.6 hPa WSW 10.3 km/h 19.3 km/h 77.8% 0 mm 512 W/m2
11:44 16.3 °C 12.8 °C 1021.6 hPa WNW 8 km/h 19.3 km/h 77.4% 0 mm 190 W/m2
11:49 16.1 °C 12.9 °C 1021.6 hPa NW 3.9 km/h 14.5 km/h 79.2% 0 mm 332 W/m2
11:54 15.8 °C 12.9 °C 1021.6 hPa WNW 6.9 km/h 14.5 km/h 81% 0 mm 345 W/m2
11:59 15.6 °C 12.9 °C 1021.6 hPa NW 8.2 km/h 14.5 km/h 81.6% 0 mm 360 W/m2
12:04 15.7 °C 13.2 °C 1021.6 hPa WNW 6 km/h 11.3 km/h 82% 0 mm 501 W/m2
12:09 16.2 °C 13.6 °C 1021.6 hPa WNW 5.3 km/h 12.9 km/h 82% 0 mm 533 W/m2
12:14 16.6 °C 13.7 °C 1021.6 hPa WNW 5.5 km/h 14.5 km/h 80.6% 0 mm 798 W/m2
12:19 17 °C 13.7 °C 1021.6 hPa WSW 9.7 km/h 16.1 km/h 78.6% 0 mm 754 W/m2
12:24 17 °C 13.2 °C 1021.6 hPa West 10 km/h 20.9 km/h 75.6% 0 mm 835 W/m2
12:29 17 °C 13 °C 1021.6 hPa WNW 9 km/h 17.7 km/h 74.8% 0 mm 308 W/m2
12:34 16.9 °C 12.8 °C 1021.6 hPa West 7.4 km/h 16.1 km/h 74.4% 0 mm 308 W/m2
12:39 17.1 °C 12.8 °C 1021.6 hPa WNW 11.9 km/h 17.7 km/h 74% 0 mm 279 W/m2
12:44 17 °C 12.8 °C 1021.6 hPa WSW 11.3 km/h 22.5 km/h 74% 0 mm 301 W/m2
12:49 16.9 °C 12.8 °C 1021.6 hPa WNW 7.4 km/h 19.3 km/h 74.6% 0 mm 225 W/m2
12:54 16.8 °C 12.7 °C 1021.6 hPa West 15.1 km/h 25.7 km/h 74.4% 0 mm 197 W/m2
12:59 16.6 °C 12.5 °C 1021.6 hPa West 9.3 km/h 17.7 km/h 74.5% 0 mm 178 W/m2
13:04 16.4 °C 12.4 °C 1021.6 hPa WNW 9.7 km/h 20.9 km/h 75% 0 mm 202 W/m2
13:09 16.2 °C 12.4 °C 1021.6 hPa NW 11.3 km/h 20.9 km/h 75.8% 0 mm 304 W/m2
13:14 16.3 °C 12.6 °C 1021.6 hPa WNW 7.7 km/h 16.1 km/h 76.4% 0 mm 404 W/m2
13:19 16.5 °C 12.7 °C 1021.2 hPa WNW 9 km/h 17.7 km/h 76% 0 mm 385 W/m2
13:24 16.8 °C 12.8 °C 1021.2 hPa West 6.3 km/h 14.5 km/h 75.2% 0 mm 371 W/m2
13:29 17.1 °C 12.9 °C 1021.2 hPa West 8.5 km/h 17.7 km/h 73.8% 0 mm 348 W/m2
13:34 17.2 °C 12.3 °C 1021.2 hPa West 13.2 km/h 17.7 km/h 70.6% 0 mm 355 W/m2
13:39 17.2 °C 11.8 °C 1021.2 hPa West 15 km/h 19.3 km/h 69% 0 mm 345 W/m2
13:44 17.1 °C 12.1 °C 1021.2 hPa West 10.1 km/h 19.3 km/h 70% 0 mm 292 W/m2
13:49 16.9 °C 12 °C 1021.2 hPa West 13.5 km/h 20.9 km/h 70.2% 0 mm 278 W/m2
13:54 17.1 °C 12.3 °C 1021.2 hPa WNW 10.8 km/h 24.1 km/h 71.2% 0 mm 272 W/m2
13:59 16.8 °C 12.1 °C 1021.6 hPa WNW 16.1 km/h 25.7 km/h 71.2% 0 mm 211 W/m2
14:04 16.4 °C 12.1 °C 1021.6 hPa WNW 15.3 km/h 29 km/h 73.2% 0 mm 149 W/m2
14:09 16.1 °C 12.3 °C 1021.6 hPa WNW 11.9 km/h 19.3 km/h 75.8% 0 mm 141 W/m2
14:14 15.9 °C 12.4 °C 1021.6 hPa West 10.3 km/h 19.3 km/h 77% 0 mm 258 W/m2
14:19 15.8 °C 12.5 °C 1021.6 hPa WSW 8.4 km/h 22.5 km/h 78% 0 mm 269 W/m2
14:24 15.8 °C 12.6 °C 1021.6 hPa West 8.4 km/h 22.5 km/h 78% 0 mm 302 W/m2
14:29 16.1 °C 12.7 °C 1021.6 hPa West 10.6 km/h 24.1 km/h 78% 0 mm 294 W/m2
14:34 16.1 °C 12.6 °C 1021.2 hPa WNW 9.3 km/h 24.1 km/h 77.2% 0 mm 295 W/m2
14:39 16.3 °C 12.7 °C 1021.2 hPa West 9.7 km/h 17.7 km/h 76.8% 0 mm 464 W/m2
14:44 16.6 °C 12.7 °C 1021.2 hPa WNW 11.6 km/h 20.9 km/h 75.6% 0 mm 483 W/m2
14:49 16.6 °C 12.4 °C 1021.2 hPa WNW 11.6 km/h 20.9 km/h 74.2% 0 mm 403 W/m2
14:54 16.7 °C 12.4 °C 1021.2 hPa WNW 11.4 km/h 20.9 km/h 73.8% 0 mm 457 W/m2
14:59 16.8 °C 12.4 °C 1021.2 hPa WNW 9 km/h 19.3 km/h 73.2% 0 mm 431 W/m2
15:04 16.8 °C 12.5 °C 1020.9 hPa WNW 9.7 km/h 16.1 km/h 73.2% 0 mm 374 W/m2
15:09 17.1 °C 12.6 °C 1020.9 hPa WNW 8.9 km/h 17.7 km/h 72.5% 0 mm 345 W/m2
15:14 17 °C 12.4 °C 1020.9 hPa WNW 10.8 km/h 19.3 km/h 71.8% 0 mm 353 W/m2
15:19 17.1 °C 12.3 °C 1020.9 hPa WNW 13.2 km/h 24.1 km/h 71.4% 0 mm 541 W/m2
15:24 17.2 °C 11.7 °C 1021.2 hPa NW 14 km/h 24.1 km/h 68.4% 0 mm 533 W/m2
15:29 17.3 °C 11.7 °C 1021.2 hPa West 13.5 km/h 24.1 km/h 67.4% 0 mm 601 W/m2
15:34 17.5 °C 11.7 °C 1020.9 hPa WSW 13.4 km/h 25.7 km/h 66.6% 0 mm 550 W/m2
15:39 17.6 °C 12.1 °C 1020.9 hPa West 14.8 km/h 22.5 km/h 68.4% 0 mm 408 W/m2
15:44 17.4 °C 12.4 °C 1020.9 hPa West 13.5 km/h 19.3 km/h 70.2% 0 mm 394 W/m2
15:49 17.4 °C 12.5 °C 1020.9 hPa WNW 10.5 km/h 24.1 km/h 70.6% 0 mm 411 W/m2
15:53 17.4 °C 12.3 °C 1020.9 hPa NW 9.7 km/h 24.1 km/h 69.5% 0 mm 388 W/m2
15:59 17.3 °C 11.7 °C 1020.9 hPa WNW 11.3 km/h 24.1 km/h 67.2% 0 mm 427 W/m2
16:04 17.3 °C 11.8 °C 1020.9 hPa WNW 12.6 km/h 25.7 km/h 68% 0 mm 724 W/m2
16:09 17.5 °C 12.2 °C 1020.9 hPa West 17.4 km/h 27.4 km/h 68.6% 0 mm 673 W/m2
16:14 17.6 °C 12.1 °C 1020.9 hPa WNW 10 km/h 20.9 km/h 68.4% 0 mm 367 W/m2
16:19 17.3 °C 11.6 °C 1021.2 hPa WNW 15.8 km/h 24.1 km/h 67.2% 0 mm 234 W/m2
16:23 17.1 °C 11.3 °C 1020.9 hPa NW 10.5 km/h 22.5 km/h 67% 0 mm 232 W/m2
16:29 16.9 °C 11.6 °C 1020.9 hPa WNW 12.9 km/h 20.9 km/h 68.5% 0 mm 248 W/m2
16:34 16.9 °C 11.7 °C 1020.9 hPa WNW 12.6 km/h 24.1 km/h 69% 0 mm 255 W/m2
16:39 16.9 °C 11.8 °C 1020.9 hPa NW 10 km/h 17.7 km/h 69.8% 0 mm 213 W/m2
16:44 16.8 °C 11.8 °C 1021.2 hPa WNW 13.2 km/h 22.5 km/h 69.8% 0 mm 181 W/m2
16:49 16.7 °C 11.7 °C 1020.9 hPa West 14.5 km/h 22.5 km/h 70% 0 mm 181 W/m2
16:53 16.6 °C 11.6 °C 1021.2 hPa WNW 10.8 km/h 22.5 km/h 70% 0 mm 193 W/m2
16:59 16.6 °C 11.7 °C 1020.9 hPa NW 9.5 km/h 16.1 km/h 70.4% 0 mm 195 W/m2
17:04 16.6 °C 11.8 °C 1020.9 hPa NW 9.7 km/h 20.9 km/h 71% 0 mm 179 W/m2
17:09 16.5 °C 11.7 °C 1021.2 hPa NW 11.9 km/h 20.9 km/h 71% 0 mm 179 W/m2
17:14 16.4 °C 11.7 °C 1020.9 hPa WNW 8.7 km/h 17.7 km/h 71.8% 0 mm 179 W/m2
17:19 16.4 °C 11.8 °C 1020.9 hPa West 6.6 km/h 17.7 km/h 72% 0 mm 162 W/m2
17:24 16.4 °C 11.8 °C 1020.9 hPa West 11.4 km/h 16.1 km/h 72.5% 0 mm 153 W/m2
17:29 16.3 °C 11.8 °C 1020.9 hPa WNW 8.7 km/h 19.3 km/h 73% 0 mm 141 W/m2
17:34 16.2 °C 12.1 °C 1020.9 hPa West 9.3 km/h 16.1 km/h 74% 0 mm 121 W/m2
17:39 16.2 °C 12 °C 1020.9 hPa WNW 7.2 km/h 16.1 km/h 74% 0 mm 95 W/m2
17:44 16.2 °C 11.9 °C 1020.9 hPa West 6.4 km/h 14.5 km/h 74% 0 mm 79 W/m2
17:49 16.1 °C 11.9 °C 1020.5 hPa WNW 10 km/h 16.1 km/h 74% 0 mm 79 W/m2
17:54 16.1 °C 11.8 °C 1020.5 hPa West 13.8 km/h 19.3 km/h 74% 0 mm 67 W/m2
17:59 16 °C 11.8 °C 1020.5 hPa WNW 7.4 km/h 16.1 km/h 74% 0 mm 63 W/m2
18:04 15.9 °C 11.9 °C 1020.5 hPa WNW 8.4 km/h 16.1 km/h 74.4% 0 mm 53 W/m2
18:09 15.9 °C 12 °C 1020.5 hPa WNW 9.7 km/h 19.3 km/h 75% 0 mm 47 W/m2
18:14 15.8 °C 11.9 °C 1020.5 hPa WNW 9.3 km/h 17.7 km/h 75% 0 mm 62 W/m2
18:19 15.8 °C 11.9 °C 1020.5 hPa WNW 10 km/h 17.7 km/h 75% 0 mm 62 W/m2
18:24 15.7 °C 11.8 °C 1020.5 hPa WNW 9.3 km/h 19.3 km/h 75% 0 mm 54 W/m2
18:29 15.7 °C 11.8 °C 1020.5 hPa WNW 13.5 km/h 22.5 km/h 75% 0 mm 54 W/m2
18:34 15.7 °C 11.8 °C 1020.5 hPa WNW 8.7 km/h 19.3 km/h 75% 0 mm 47 W/m2
18:39 15.6 °C 11.7 °C 1020.5 hPa WNW 7.6 km/h 19.3 km/h 75% 0 mm 39 W/m2
18:44 15.6 °C 11.7 °C 1020.5 hPa WNW 8.5 km/h 12.9 km/h 75% 0 mm 44 W/m2
18:49 15.6 °C 11.8 °C 1020.5 hPa WNW 8 km/h 12.9 km/h 75.8% 0 mm 47 W/m2
18:54 15.5 °C 11.8 °C 1020.5 hPa WNW 6.1 km/h 14.5 km/h 76% 0 mm 44 W/m2
18:59 15.4 °C 11.7 °C 1020.2 hPa WNW 7.2 km/h 11.3 km/h 76% 0 mm 35 W/m2
19:04 15.4 °C 11.7 °C 1020.2 hPa West 6.6 km/h 12.9 km/h 76% 0 mm 26 W/m2
19:09 15.4 °C 11.7 °C 1020.2 hPa West 11.6 km/h 16.1 km/h 76% 0 mm 26 W/m2
19:14 15.3 °C 11.6 °C 1020.2 hPa WNW 5.5 km/h 16.1 km/h 76% 0 mm 25 W/m2
19:19 15.3 °C 11.7 °C 1020.2 hPa WNW 7.4 km/h 14.5 km/h 76.6% 0 mm 25 W/m2
19:24 15.3 °C 11.8 °C 1020.2 hPa West 7.1 km/h 12.9 km/h 77% 0 mm 16 W/m2
19:29 15.2 °C 11.7 °C 1020.5 hPa West 5.5 km/h 12.9 km/h 77% 0 mm 11 W/m2
19:34 15.2 °C 11.7 °C 1020.5 hPa West 9.5 km/h 19.3 km/h 77% 0 mm 9 W/m2
19:39 15.2 °C 11.7 °C 1020.5 hPa WNW 7.9 km/h 19.3 km/h 77% 0 mm 5 W/m2
19:44 15.1 °C 11.6 °C 1020.5 hPa WNW 8 km/h 16.1 km/h 77% 0 mm 0 W/m2
19:49 15.1 °C 11.6 °C 1020.5 hPa West 7.7 km/h 16.1 km/h 77% 0 mm 0 W/m2
19:54 14.9 °C 11.4 °C 1020.5 hPa West 8.7 km/h 16.1 km/h 77% 0 mm 0 W/m2
19:59 14.7 °C 11.2 °C 1020.5 hPa WNW 8.4 km/h 16.1 km/h 77% 0 mm 0 W/m2
20:04 14.7 °C 11.3 °C 1020.9 hPa WNW 7.9 km/h 14.5 km/h 78% 0 mm 0 W/m2
20:09 14.5 °C 11.3 °C 1020.9 hPa WNW 9 km/h 12.9 km/h 78.6% 0 mm 0 W/m2
20:14 14.3 °C 11.2 °C 1020.9 hPa WNW 9.2 km/h 20.9 km/h 79% 0 mm 0 W/m2
20:19 14.2 °C 11.3 °C 1020.9 hPa WNW 6.4 km/h 16.1 km/h 80% 0.25 mm 0 W/m2
20:24 14.1 °C 11.3 °C 1020.9 hPa WNW 4.8 km/h 14.5 km/h 80.8% 0.25 mm 0 W/m2
20:29 13.8 °C 11.2 °C 1020.9 hPa WNW 5.1 km/h 9.7 km/h 81% 0.25 mm 0 W/m2
20:34 13.7 °C 11.2 °C 1020.9 hPa WNW 4.3 km/h 8 km/h 82% 0.25 mm 0 W/m2
20:39 13.7 °C 11.2 °C 1020.9 hPa WNW 3.5 km/h 4.8 km/h 82% 0.25 mm 0 W/m2
20:44 13.6 °C 11.3 °C 1020.9 hPa WNW 2.3 km/h 6.4 km/h 83% 0.25 mm 0 W/m2
20:49 13.6 °C 11.2 °C 1020.9 hPa WNW 3.2 km/h 8 km/h 83% 0.25 mm 0 W/m2
20:54 13.5 °C 11.3 °C 1021.2 hPa WNW 1.4 km/h 6.4 km/h 84% 0.25 mm 0 W/m2
20:59 13.4 °C 11.3 °C 1021.2 hPa WNW 1.9 km/h 6.4 km/h 84.2% 0.25 mm 0 W/m2
21:04 13.3 °C 11.3 °C 1021.2 hPa WNW 1.3 km/h 6.4 km/h 85% 0.25 mm 0 W/m2
21:09 13.3 °C 11.3 °C 1021.2 hPa WNW 1.4 km/h 4.8 km/h 85% 0.25 mm 0 W/m2
21:14 13.3 °C 11.3 °C 1021.2 hPa Calm   4.8 km/h 85% 0.25 mm 0 W/m2
21:19 13.3 °C 11.5 °C 1021.2 hPa WNW 3.2 km/h 8 km/h 86% 0.25 mm 0 W/m2
21:24 13.2 °C 11.4 °C 1021.2 hPa West 3.4 km/h 8 km/h 86% 0 mm 0 W/m2
21:29 13.2 °C 11.4 °C 1021.2 hPa West 1.8 km/h 6.4 km/h 86% 0 mm 0 W/m2
21:34 13.2 °C 11.4 °C 1021.2 hPa West 2.6 km/h 4.8 km/h 86% 0 mm 0 W/m2
21:39 13.1 °C 11.3 °C 1021.2 hPa West 3.9 km/h 6.4 km/h 86% 0 mm 0 W/m2
21:44 13.1 °C 11.3 °C 1021.2 hPa NW 2.4 km/h 8 km/h 86% 0 mm 0 W/m2
21:49 13.1 °C 11.2 °C 1021.2 hPa NNW 4.8 km/h 8 km/h 86% 0 mm 0 W/m2
21:54 13.1 °C 11.2 °C 1021.2 hPa NNW 1 km/h 4.8 km/h 86% 0 mm 0 W/m2
21:59 13.1 °C 11.2 °C 1021.2 hPa NNW 1.6 km/h 4.8 km/h 86% 0 mm 0 W/m2
22:04 13 °C 11.2 °C 1021.2 hPa NNW 2.9 km/h 6.4 km/h 86% 0 mm 0 W/m2
22:09 12.9 °C 11.2 °C 1021.2 hPa NNW 3.2 km/h 6.4 km/h 86% 0 mm 0 W/m2
22:14 12.9 °C 11.1 °C 1021.2 hPa NW 3.5 km/h 6.4 km/h 86% 0 mm 0 W/m2
22:19 12.9 °C 11.1 °C 1020.9 hPa NW 3.2 km/h 6.4 km/h 86% 0 mm 0 W/m2
22:24 12.9 °C 11.1 °C 1021.2 hPa NW 4 km/h 6.4 km/h 86% 0 mm 0 W/m2
22:29 12.9 °C 11.1 °C 1021.2 hPa West 4.7 km/h 9.7 km/h 86% 0 mm 0 W/m2
22:34 12.8 °C 11.1 °C 1021.2 hPa West 2.6 km/h 6.4 km/h 86% 0 mm 0 W/m2
22:39 12.8 °C 11 °C 1021.2 hPa West 1.3 km/h 4.8 km/h 86% 0 mm 0 W/m2
22:44 12.8 °C 11 °C 1021.2 hPa West 1.9 km/h 3.2 km/h 86% 0 mm 0 W/m2
22:48 12.8 °C 11 °C 1021.2 hPa West 1.1 km/h 4.8 km/h 86% 0 mm 0 W/m2
22:54 12.7 °C 10.9 °C 1020.9 hPa West 1.4 km/h 4.8 km/h 86% 0 mm 0 W/m2
22:59 12.6 °C 10.8 °C 1020.9 hPa West 1.4 km/h 4.8 km/h 86% 0 mm 0 W/m2
23:04 12.5 °C 10.7 °C 1021.2 hPa West 2.6 km/h 6.4 km/h 86% 0 mm 0 W/m2
23:09 12.4 °C 10.6 °C 1021.2 hPa West 1.9 km/h 6.4 km/h 86% 0 mm 0 W/m2
23:14 12.3 °C 10.5 °C 1020.9 hPa West 1.4 km/h 4.8 km/h 86% 0 mm 0 W/m2
23:19 12.2 °C 10.4 °C 1020.9 hPa West 2.6 km/h 4.8 km/h 86% 0 mm 0 W/m2
23:24 12.2 °C 10.4 °C 1021.2 hPa West 2.6 km/h 4.8 km/h 86% 0 mm 0 W/m2
23:29 12.1 °C 10.3 °C 1021.2 hPa West 3.2 km/h 4.8 km/h 86% 0 mm 0 W/m2
23:34 11.9 °C 10.1 °C 1020.9 hPa West 3.2 km/h 4.8 km/h 86% 0 mm 0 W/m2
23:39 11.8 °C 10 °C 1020.9 hPa West 1.9 km/h 4.8 km/h 86% 0 mm 0 W/m2
23:44 11.7 °C 9.9 °C 1020.9 hPa West 1.1 km/h 3.2 km/h 86% 0 mm 0 W/m2
23:49 11.7 °C 9.8 °C 1020.9 hPa West 2.1 km/h 4.8 km/h 86% 0 mm 0 W/m2
23:54 11.6 °C 9.8 °C 1021.2 hPa West 2.1 km/h 4.8 km/h 86% 0 mm 0 W/m2
23:59 11.4 °C 9.8 °C 1021.2 hPa West 2.9 km/h 4.8 km/h 86.6% 0 mm 0 W/m2
Bath Spa Weather
Compliments of Weather Underground - 2 mb